createdAt,value
2017-01-09T09:00:32.846Z,20.19
2017-01-09T09:01:03.182Z,20.15
2017-01-09T09:01:32.918Z,20.19
2017-01-09T09:02:03.246Z,20.17
2017-01-09T09:02:32.974Z,20.22
2017-01-09T09:03:13.696Z,20.2
2017-01-09T09:03:43.728Z,20.17
2017-01-09T09:04:13.759Z,20.23
2017-01-09T09:04:43.792Z,20.19
2017-01-09T09:05:13.825Z,20.19
2017-01-09T09:05:43.871Z,20.22
2017-01-09T09:06:13.895Z,20.22
2017-01-09T09:06:43.923Z,20.2
2017-01-09T09:07:13.964Z,20.27
2017-01-09T09:07:44.000Z,20.23
2017-01-09T09:08:14.027Z,20.26
2017-01-09T09:08:44.063Z,20.23
2017-01-09T09:09:14.099Z,20.23
2017-01-09T09:09:44.131Z,20.25
2017-01-09T09:10:14.165Z,20.33
2017-01-09T09:10:44.207Z,20.31
2017-01-09T09:11:14.238Z,20.34
2017-01-09T09:11:44.271Z,20.25
2017-01-09T09:12:14.307Z,20.23
2017-01-09T09:12:44.338Z,20.38
2017-01-09T09:13:14.390Z,20.38
2017-01-09T09:13:44.416Z,20.31
2017-01-09T09:14:14.452Z,20.41
2017-01-09T09:14:44.482Z,20.4
2017-01-09T09:15:14.518Z,20.4
2017-01-09T09:15:44.555Z,20.35
2017-01-09T09:16:14.591Z,20.35
2017-01-09T09:16:44.636Z,20.41
2017-01-09T09:17:14.669Z,20.42
2017-01-09T09:17:44.703Z,20.4
2017-01-09T09:18:14.734Z,20.5
2017-01-09T09:18:44.803Z,20.46
2017-01-09T09:19:14.807Z,20.48
2017-01-09T09:19:44.843Z,20.46
2017-01-09T09:20:14.882Z,20.51
2017-01-09T09:20:44.934Z,20.5
2017-01-09T09:21:14.953Z,20.48
2017-01-09T09:21:44.989Z,20.48
2017-01-09T09:22:15.026Z,20.51
2017-01-09T09:22:45.062Z,20.58
2017-01-09T09:23:15.096Z,20.53
2017-01-09T09:23:45.132Z,20.57
2017-01-09T09:24:15.170Z,20.6
2017-01-09T09:24:45.205Z,20.6
2017-01-09T09:25:15.265Z,20.64
2017-01-09T09:25:45.278Z,20.64
2017-01-09T09:26:15.321Z,20.61
2017-01-09T09:26:45.345Z,20.63
2017-01-09T09:27:15.388Z,20.64
2017-01-09T09:27:45.420Z,20.63
2017-01-09T09:28:15.462Z,20.66
2017-01-09T09:28:45.491Z,20.68
2017-01-09T09:29:15.525Z,20.72
2017-01-09T09:29:45.564Z,20.73
2017-01-09T09:30:15.603Z,20.71
2017-01-09T09:30:45.639Z,20.73
2017-01-09T09:31:15.679Z,20.72
2017-01-09T09:31:45.706Z,20.72
2017-01-09T09:32:15.751Z,20.72
2017-01-09T09:32:45.783Z,20.73
2017-01-09T09:33:15.818Z,20.73
2017-01-09T09:33:45.855Z,20.76
2017-01-09T09:34:15.904Z,20.9
2017-01-09T09:34:45.926Z,20.82
2017-01-09T09:35:16.124Z,20.85
2017-01-09T09:35:46.005Z,20.85
2017-01-09T09:36:16.040Z,20.9
2017-01-09T09:36:46.090Z,20.83
2017-01-09T09:37:16.116Z,20.88
2017-01-09T09:37:46.152Z,20.87
2017-01-09T09:38:16.196Z,20.9
2017-01-09T09:38:46.224Z,20.93
2017-01-09T09:39:16.263Z,20.88
2017-01-09T09:39:46.298Z,20.94
2017-01-09T09:40:16.332Z,20.94
2017-01-09T09:40:46.368Z,20.97
2017-01-09T09:41:16.403Z,20.96
2017-01-09T09:41:46.397Z,20.98
2017-01-09T09:42:16.480Z,21.01
2017-01-09T09:42:46.511Z,20.97
2017-01-09T09:43:16.553Z,20.98
2017-01-09T09:43:46.601Z,21.08
2017-01-09T09:44:16.631Z,21
2017-01-09T09:44:46.663Z,21.03
2017-01-09T09:45:16.697Z,21.01
2017-01-09T09:45:46.736Z,21.03
2017-01-09T09:46:16.951Z,21.09
2017-01-09T09:46:46.810Z,21.09
2017-01-09T09:47:16.850Z,21.06
2017-01-09T09:47:46.881Z,21.11
2017-01-09T09:48:16.920Z,21.06
2017-01-09T09:48:46.950Z,21.09
2017-01-09T09:49:16.997Z,21.09
2017-01-09T09:49:47.028Z,21.09
2017-01-09T09:50:17.073Z,21.09
2017-01-09T09:50:47.099Z,21.12
2017-01-09T09:51:17.144Z,21.13
2017-01-09T09:51:47.173Z,21.11
2017-01-09T09:52:17.214Z,21.09
2017-01-09T09:52:47.250Z,21.12
2017-01-09T09:53:17.284Z,21.16
2017-01-09T09:53:47.322Z,21.24
2017-01-09T10:03:44.888Z,21.73
2017-01-09T10:04:14.915Z,21.74
2017-01-09T10:04:44.954Z,21.83
2017-01-09T10:05:14.989Z,21.98
2017-01-09T10:05:45.020Z,21.89
2017-01-09T10:06:15.061Z,21.94
2017-01-09T10:06:45.098Z,22.04
2017-01-09T10:07:15.125Z,22.06
